TimeCST,TemperatureF,Dew PointF,Humidity,Sea Level PressureIn,VisibilityMPH,Wind Direction,Wind SpeedMPH,Gust SpeedMPH,PrecipitationIn,Events,Conditions,WindDirDegrees,DateUTC
12:14 AM,-16.6,-23.8,70,30.50,10.0,NNE,6.9,-,N/A,,Clear,20,2013-02-20 06:14:00
12:34 AM,-16.6,-22.0,76,30.50,10.0,NNE,4.6,-,N/A,,Clear,20,2013-02-20 06:34:00
12:55 AM,-18.4,-23.8,76,30.51,10.0,NW,3.5,-,N/A,,Clear,320,2013-02-20 06:55:00
1:14 AM,-18.4,-23.8,76,30.50,10.0,NNW,3.5,-,N/A,,Clear,340,2013-02-20 07:14:00
1:34 AM,-18.4,-25.6,70,30.51,10.0,Calm,Calm,-,N/A,,Clear,0,2013-02-20 07:34:00
1:55 AM,-18.4,-23.8,76,30.50,10.0,North,3.5,-,N/A,,Clear,360,2013-02-20 07:55:00
2:14 AM,-18.4,-23.8,76,30.51,10.0,North,3.5,-,N/A,,Clear,350,2013-02-20 08:14:00
2:34 AM,-20.2,-25.6,76,30.51,10.0,North,4.6,-,N/A,,Clear,350,2013-02-20 08:34:00
2:55 AM,-18.4,-25.6,70,30.51,10.0,NNE,6.9,-,N/A,,Clear,20,2013-02-20 08:55:00
3:14 AM,-18.4,-25.6,70,30.50,10.0,NNE,5.8,-,N/A,,Clear,30,2013-02-20 09:14:00
3:34 AM,-20.2,-25.6,76,30.50,10.0,NNE,3.5,-,N/A,,Clear,20,2013-02-20 09:34:00
3:55 AM,-20.2,-25.6,76,30.50,10.0,NNE,4.6,-,N/A,,Clear,30,2013-02-20 09:55:00
4:14 AM,-20.2,-25.6,76,30.50,10.0,North,3.5,-,N/A,,Clear,350,2013-02-20 10:14:00
4:35 AM,-18.4,-25.6,70,30.50,10.0,North,4.6,-,N/A,,Clear,360,2013-02-20 10:35:00
4:55 AM,-20.2,-25.6,76,30.50,10.0,NNE,3.5,-,N/A,,Clear,20,2013-02-20 10:55:00
5:14 AM,-18.4,-23.8,76,30.50,10.0,Calm,Calm,-,N/A,,Clear,0,2013-02-20 11:14:00
5:35 AM,-20.2,-25.6,76,30.49,10.0,Calm,Calm,-,N/A,,Clear,0,2013-02-20 11:35:00
5:54 AM,-18.4,-23.8,76,30.48,10.0,ENE,5.8,-,N/A,,Clear,70,2013-02-20 11:54:00
6:14 AM,-16.6,-23.8,70,30.49,10.0,East,3.5,-,N/A,,Clear,90,2013-02-20 12:14:00
6:35 AM,-16.6,-22.0,76,30.49,10.0,East,3.5,-,N/A,,Clear,100,2013-02-20 12:35:00
6:54 AM,-14.8,-20.2,77,30.48,10.0,East,8.1,-,N/A,,Clear,90,2013-02-20 12:54:00
7:14 AM,-14.8,-20.2,77,30.48,10.0,East,5.8,-,N/A,,Clear,100,2013-02-20 13:14:00
7:35 AM,-18.4,-23.8,76,30.50,10.0,Calm,Calm,-,N/A,,Clear,0,2013-02-20 13:35:00
7:54 AM,-18.4,-23.8,76,30.50,10.0,Calm,Calm,-,N/A,,Clear,0,2013-02-20 13:54:00
8:14 AM,-14.8,-18.4,84,30.50,10.0,Calm,Calm,-,N/A,,Clear,0,2013-02-20 14:14:00
8:35 AM,-13.0,-18.4,77,30.50,10.0,ESE,5.8,-,N/A,,Clear,110,2013-02-20 14:35:00
8:54 AM,-11.2,-18.4,70,30.50,10.0,ESE,8.1,-,N/A,,Clear,110,2013-02-20 14:54:00
9:14 AM,-11.2,-16.6,77,30.50,10.0,ESE,6.9,-,N/A,,Clear,120,2013-02-20 15:14:00
9:35 AM,-9.4,-16.6,71,30.50,10.0,ESE,8.1,-,N/A,,Clear,110,2013-02-20 15:35:00
9:54 AM,-7.6,-14.8,71,30.49,10.0,ESE,6.9,-,N/A,,Clear,120,2013-02-20 15:54:00
10:14 AM,-7.6,-14.8,71,30.49,10.0,ESE,8.1,-,N/A,,Clear,110,2013-02-20 16:14:00
10:35 AM,-5.8,-13.0,71,30.48,10.0,ESE,8.1,-,N/A,,Clear,110,2013-02-20 16:35:00
10:54 AM,-5.8,-13.0,71,30.48,10.0,East,9.2,-,N/A,,Clear,90,2013-02-20 16:54:00
11:15 AM,-5.8,-13.0,71,30.48,10.0,East,4.6,-,N/A,,Clear,80,2013-02-20 17:15:00
11:35 AM,-4.0,-11.2,71,30.48,10.0,Calm,Calm,-,N/A,,Clear,0,2013-02-20 17:35:00
11:54 AM,-2.2,-9.4,71,30.48,10.0,Calm,Calm,-,N/A,,Clear,0,2013-02-20 17:54:00
12:15 PM,-0.4,-9.4,66,30.48,10.0,SE,4.6,-,N/A,,Clear,130,2013-02-20 18:15:00
12:35 PM,-0.4,-9.4,66,30.48,10.0,ESE,3.5,-,N/A,,Clear,120,2013-02-20 18:35:00
12:54 PM,1.4,-7.6,66,30.47,10.0,SE,4.6,-,N/A,,Clear,130,2013-02-20 18:54:00
1:14 PM,-0.4,-9.4,66,30.46,10.0,East,5.8,-,N/A,,Clear,90,2013-02-20 19:14:00
1:35 PM,1.4,-7.6,66,30.46,10.0,East,6.9,-,N/A,,Clear,80,2013-02-20 19:35:00
1:54 PM,1.4,-7.6,66,30.45,10.0,East,4.6,-,N/A,,Clear,100,2013-02-20 19:54:00
2:35 PM,5.0,-5.8,61,30.45,10.0,ESE,3.5,-,N/A,,Clear,120,2013-02-20 20:35:00
2:54 PM,6.8,-5.8,56,30.45,10.0,Calm,Calm,-,N/A,,Clear,0,2013-02-20 20:54:00
3:14 PM,6.8,-4.0,61,30.45,10.0,SE,3.5,-,N/A,,Clear,130,2013-02-20 21:14:00
3:35 PM,6.8,-2.2,67,30.45,10.0,SE,3.5,-,N/A,,Clear,140,2013-02-20 21:35:00
3:54 PM,6.8,-2.2,67,30.44,10.0,SE,3.5,-,N/A,,Clear,140,2013-02-20 21:54:00
4:14 PM,6.8,-2.2,67,30.44,10.0,Calm,Calm,-,N/A,,Clear,0,2013-02-20 22:14:00
4:35 PM,6.8,-2.2,67,30.44,10.0,Calm,Calm,-,N/A,,Clear,0,2013-02-20 22:35:00
4:54 PM,8.6,-2.2,62,30.43,10.0,Calm,Calm,-,N/A,,Clear,0,2013-02-20 22:54:00
5:14 PM,6.8,-2.2,67,30.42,10.0,East,4.6,-,N/A,,Clear,80,2013-02-20 23:14:00
5:35 PM,6.8,-2.2,67,30.42,10.0,East,3.5,-,N/A,,Clear,80,2013-02-20 23:35:00
5:54 PM,6.8,-2.2,67,30.41,10.0,East,5.8,-,N/A,,Clear,80,2013-02-20 23:54:00
6:14 PM,6.8,-2.2,67,30.41,10.0,Calm,Calm,-,N/A,,Clear,0,2013-02-21 00:14:00
6:35 PM,6.8,-2.2,67,30.40,10.0,East,3.5,-,N/A,,Clear,80,2013-02-21 00:35:00
6:54 PM,5.0,-2.2,72,30.39,10.0,East,6.9,-,N/A,,Clear,90,2013-02-21 00:54:00
7:15 PM,6.8,-2.2,67,30.38,10.0,East,6.9,-,N/A,,Clear,100,2013-02-21 01:15:00
7:35 PM,6.8,-4.0,61,30.38,10.0,ESE,8.1,-,N/A,,Clear,110,2013-02-21 01:35:00
7:54 PM,6.8,-4.0,61,30.38,10.0,ESE,8.1,-,N/A,,Clear,110,2013-02-21 01:54:00
8:15 PM,6.8,-4.0,61,30.37,10.0,ESE,11.5,-,N/A,,Clear,110,2013-02-21 02:15:00
8:35 PM,6.8,-2.2,67,30.37,10.0,ESE,12.7,-,N/A,,Clear,120,2013-02-21 02:35:00
8:54 PM,6.8,-4.0,61,30.37,10.0,ESE,10.4,-,N/A,,Clear,120,2013-02-21 02:54:00
9:15 PM,6.8,-4.0,61,30.37,10.0,ESE,10.4,-,N/A,,Clear,120,2013-02-21 03:15:00
9:35 PM,6.8,-4.0,61,30.37,10.0,ESE,9.2,-,N/A,,Clear,110,2013-02-21 03:35:00
9:54 PM,6.8,-4.0,61,30.37,10.0,ESE,8.1,-,N/A,,Clear,120,2013-02-21 03:54:00
10:15 PM,6.8,-4.0,61,30.37,10.0,ESE,9.2,-,N/A,,Clear,120,2013-02-21 04:15:00
10:34 PM,5.0,-4.0,66,30.37,10.0,ESE,9.2,-,N/A,,Clear,110,2013-02-21 04:34:00
10:54 PM,5.0,-4.0,66,30.37,10.0,ESE,10.4,-,N/A,,Clear,110,2013-02-21 04:54:00
11:15 PM,5.0,-5.8,61,30.38,10.0,ESE,6.9,-,N/A,,Clear,120,2013-02-21 05:15:00
11:34 PM,5.0,-5.8,61,30.38,10.0,ESE,8.1,-,N/A,,Clear,120,2013-02-21 05:34:00
11:54 PM,3.2,-5.8,66,30.38,10.0,ESE,6.9,-,N/A,,Clear,120,2013-02-21 05:54:00